Time;durP1;ratioP1;P1;durP2;ratioP2;P2;SDS_P1;SDS_P2;PMS_P1;PMS_P2;Temp;Humidity;BMP_temperature;BMP_pressure;BME280_temperature;BME280_humidity;BME280_pressure;Samples;Min_cycle;Max_cycle;Signal;HPM_P1;HPM_P2
2022/08/15 00:02:11;;;;;;;;;;;;;;;;;;;;;
2022/08/15 00:05:12;;;;;;;;;;;;;;;;;;;;;
2022/08/15 00:08:21;;;;;;;14.30;9.50;;;;;;;19.38;73.68;98168.18;108599;1281;23422;-91
2022/08/15 00:14:54;;;;;;;14.80;9.30;;;;;;;19.23;73.64;98179.84;107601;1281;22730;-90
2022/08/15 00:17:59;;;;;;;13.90;9.40;;;;;;;19.13;73.66;98184.16;107976;1281;23101;-91
2022/08/15 00:24:12;;;;;;;;;;;;;;;;;;;;;
2022/08/15 00:27:24;;;;;;;;;;;;;;;;;;;;;
2022/08/15 00:30:26;;;;;;;;;;;;;;;;;;;;;
2022/08/15 00:33:25;;;;;;;23.20;9.90;;;;;;;18.96;73.92;98181.95;109124;1279;22573;-92
2022/08/15 00:36:42;;;;;;;;;;;;;;;;;;;;;
2022/08/15 00:39:47;;;;;;;;;;;;;;;;;;;;;
2022/08/15 00:42:42;;;;;;;16.60;9.30;;;;;;;18.78;74.29;98177.31;108679;1282;22756;-93
2022/08/15 00:46:03;;;;;;;;;;;;;;;;;;;;;
2022/08/15 00:49:02;;;;;;;;;;;;;;;;;;;;;
2022/08/15 00:52:03;;;;;;;;;;;;;;;;;;;;;
2022/08/15 00:55:11;;;;;;;;;;;;;;;;;;;;;
2022/08/15 00:58:15;;;;;;;;;;;;;;;;;;;;;
2022/08/15 01:01:15;;;;;;;;;;;;;;;;;;;;;
2022/08/15 01:04:11;;;;;;;20.10;10.40;;;;;;;19.10;74.50;98166.69;109298;1281;22941;-92
2022/08/15 01:07:22;;;;;;;;;;;;;;;;;;;;;
2022/08/15 01:10:29;;;;;;;;;;;;;;;;;;;;;
2022/08/15 01:13:20;;;;;;;16.00;9.40;;;;;;;19.13;74.32;98152.08;108318;1281;22703;-92
2022/08/15 01:16:31;;;;;;;14.80;8.90;;;;;;;19.12;74.48;98147.17;108590;1281;22657;-91
2022/08/15 01:19:51;;;;;;;16.40;10.00;;;;;;;19.11;74.37;98143.38;108929;1279;22485;-92
2022/08/15 01:22:58;;;;;;;;;;;;;;;;;;;;;
2022/08/15 01:26:01;;;;;;;15.20;9.60;;;;;;;19.11;74.49;98148.88;108794;1277;22571;-91
2022/08/15 01:28:58;;;;;;;;;;;;;;;;;;;;;
2022/08/15 01:32:03;;;;;;;13.20;8.70;;;;;;;19.03;74.33;98153.87;108763;1278;23789;-91
2022/08/15 01:35:04;;;;;;;;;;;;;;;;;;;;;
2022/08/15 01:38:03;;;;;;;;;;;;;;;;;;;;;
2022/08/15 01:41:11;;;;;;;;;;;;;;;;;;;;;
2022/08/15 01:44:16;;;;;;;;;;;;;;;;;;;;;
2022/08/15 01:47:18;;;;;;;;;;;;;;;;;;;;;
2022/08/15 01:50:18;;;;;;;;;;;;;;;;;;;;;
2022/08/15 01:53:24;;;;;;;;;;;;;;;;;;;;;
2022/08/15 01:56:26;;;;;;;;;;;;;;;;;;;;;
2022/08/15 02:02:26;;;;;;;;;;;;;;;;;;;;;
2022/08/15 02:05:30;;;;;;;;;;;;;;;;;;;;;
2022/08/15 02:08:17;;;;;;;13.10;8.10;;;;;;;18.66;75.03;98137.11;108265;1284;24290;-91
2022/08/15 02:11:32;;;;;;;;;;;;;;;;;;;;;
2022/08/15 02:14:38;;;;;;;;;;;;;;;;;;;;;
2022/08/15 02:17:28;;;;;;;13.00;8.00;;;;;;;18.68;75.14;98126.92;108824;1281;24462;-91
2022/08/15 02:20:35;;;;;;;;;;;;;;;;;;;;;
2022/08/15 02:32:53;;;;;;;;;;;;;;;;;;;;;
2022/08/15 02:35:58;;;;;;;;;;;;;;;;;;;;;
2022/08/15 02:38:52;;;;;;;15.20;9.40;;;;;;;18.86;75.49;98105.47;109753;1281;22395;-92
2022/08/15 02:42:03;;;;;;;;;;;;;;;;;;;;;
2022/08/15 02:48:05;;;;;;;;;;;;;;;;;;;;;
2022/08/15 02:51:08;;;;;;;;;;;;;;;;;;;;;
2022/08/15 02:54:10;;;;;;;;;;;;;;;;;;;;;
2022/08/15 03:00:16;;;;;;;;;;;;;;;;;;;;;
2022/08/15 03:06:25;;;;;;;;;;;;;;;;;;;;;
2022/08/15 03:12:29;;;;;;;;;;;;;;;;;;;;;
2022/08/15 03:18:37;;;;;;;;;;;;;;;;;;;;;
2022/08/15 03:21:39;;;;;;;;;;;;;;;;;;;;;
2022/08/15 03:24:37;;;;;;;15.30;9.60;;;;;;;19.29;75.31;98103.23;109659;1269;23788;31
2022/08/15 03:27:45;;;;;;;;;;;;;;;;;;;;;
2022/08/15 03:33:46;;;;;;;;;;;;;;;;;;;;;
2022/08/15 03:36:45;;;;;;;;;;;;;;;;;;;;;
2022/08/15 03:39:40;;;;;;;14.10;8.70;;;;;;;19.23;75.42;98111.36;109568;1282;22436;-92
2022/08/15 03:45:49;;;;;;;;;;;;;;;;;;;;;
2022/08/15 03:48:53;;;;;;;;;;;;;;;;;;;;;
2022/08/15 03:51:46;;;;;;;15.20;9.50;;;;;;;19.24;75.41;98110.23;109570;1281;22526;-92
2022/08/15 03:54:54;;;;;;;;;;;;;;;;;;;;;
2022/08/15 03:57:55;;;;;;;;;;;;;;;;;;;;;
2022/08/15 04:01:02;;;;;;;;;;;;;;;;;;;;;
2022/08/15 04:04:04;;;;;;;;;;;;;;;;;;;;;
2022/08/15 04:10:10;;;;;;;;;;;;;;;;;;;;;
2022/08/15 04:12:58;;;;;;;15.10;9.00;;;;;;;19.37;75.58;98088.58;109658;1281;22430;-92
2022/08/15 04:16:13;;;;;;;;;;;;;;;;;;;;;
2022/08/15 04:19:15;;;;;;;;;;;;;;;;;;;;;
2022/08/15 04:22:18;;;;;;;;;;;;;;;;;;;;;
2022/08/15 04:25:20;;;;;;;;;;;;;;;;;;;;;
2022/08/15 04:28:20;;;;;;;;;;;;;;;;;;;;;
2022/08/15 04:31:13;;;;;;;12.80;8.00;;;;;;;19.53;75.46;98084.56;109622;1281;23258;-93
2022/08/15 04:34:27;;;;;;;;;;;;;;;;;;;;;
2022/08/15 04:37:30;;;;;;;;;;;;;;;;;;;;;
2022/08/15 04:40:28;;;;;;;14.30;9.30;;;;;;;19.61;75.53;98092.25;109249;1282;23234;-91
2022/08/15 04:43:35;;;;;;;;;;;;;;;;;;;;;
2022/08/15 04:46:29;;;;;;;12.70;7.60;;;;;;;19.67;75.74;98087.75;109574;1281;22440;-91
2022/08/15 04:49:43;;;;;;;;;;;;;;;;;;;;;
2022/08/15 04:52:43;;;;;;;;;;;;;;;;;;;;;
2022/08/15 04:55:55;;;;;;;;;;;;;;;;;;;;;
2022/08/15 04:58:48;;;;;;;14.60;8.20;;;;;;;19.83;75.61;98088.46;109625;1280;22484;-93
2022/08/15 05:01:59;;;;;;;12.20;8.20;;;;;;;19.89;75.61;98091.77;109555;1281;22443;-92
2022/08/15 05:04:54;;;;;;;15.60;8.00;;;;;;;19.93;75.63;98088.27;108878;1281;22382;-92
2022/08/15 05:08:04;;;;;;;;;;;;;;;;;;;;;
2022/08/15 05:13:58;;;;;;;;;;;;;;;;;;;;;
2022/08/15 05:20:29;;;;;;;13.80;8.90;;;;;;;20.16;75.68;98082.44;109631;1280;23070;-91
2022/08/15 05:23:48;;;;;;;15.30;8.90;;;;;;;20.22;75.81;98089.57;109500;1281;23148;-90
2022/08/15 05:29:43;;;;;;;16.80;9.40;;;;;;;20.25;75.74;98087.60;109129;1283;22354;-92
2022/08/15 05:32:32;;;;;;;14.60;8.60;;;;;;;20.28;75.71;98083.40;109446;1281;22380;-92
2022/08/15 05:35:54;;;;;;;;;;;;;;;;;;;;;
2022/08/15 05:43:12;;;;;;;13.30;8.50;;;;;;;20.46;75.82;98089.79;109639;1279;22391;-91
2022/08/15 05:46:46;;;;;;;15.10;10.20;;;;;;;20.54;75.64;98084.23;108145;1290;22394;-91
2022/08/15 05:49:56;;;;;;;;;;;;;;;;;;;;;
2022/08/15 05:53:13;;;;;;;15.40;9.70;;;;;;;20.62;75.77;98098.73;108212;1289;22471;-91
2022/08/15 05:56:12;;;;;;;15.30;9.30;;;;;;;20.66;75.79;98095.13;109302;1281;22366;-90
2022/08/15 05:59:17;;;;;;;15.80;9.10;;;;;;;20.78;75.81;98088.86;109282;1281;22510;-92
2022/08/15 06:02:58;;;;;;;;;;;;;;;;;;;;;
2022/08/15 06:06:10;;;;;;;14.30;9.30;;;;;;;21.09;75.80;98083.02;109439;1279;22341;-91
2022/08/15 06:10:22;;;;;;;16.70;9.40;;;;;;;21.30;75.81;98087.44;109358;1279;22440;-91
2022/08/15 06:13:25;;;;;;;16.10;9.20;;;;;;;21.39;75.66;98076.04;109454;1280;22494;-90
2022/08/15 06:16:51;;;;;;;15.50;9.30;;;;;;;21.46;75.59;98071.30;109335;1281;22232;-91
2022/08/15 06:19:50;;;;;;;14.90;9.10;;;;;;;21.64;75.69;98085.16;108218;1288;22512;-91
2022/08/15 06:23:05;;;;;;;;;;;;;;;;;;;;;
2022/08/15 06:26:31;;;;;;;13.90;8.00;;;;;;;21.80;75.48;98083.02;108246;1289;22563;-90
2022/08/15 06:29:41;;;;;;;14.40;8.70;;;;;;;21.94;75.70;98087.91;108309;1290;22496;-91
2022/08/15 06:33:04;;;;;;;14.90;8.60;;;;;;;22.11;75.61;98092.55;108099;1289;22489;-91
2022/08/15 06:36:41;;;;;;;;;;;;;;;;;;;;;
2022/08/15 06:40:21;;;;;;;14.50;9.10;;;;;;;22.30;75.59;98094.04;107706;1293;22524;-93
2022/08/15 06:43:15;;;;;;;14.90;8.90;;;;;;;22.39;75.64;98093.45;107568;1296;22212;-90
2022/08/15 06:46:40;;;;;;;;;;;;;;;;;;;;;
2022/08/15 06:50:06;;;;;;;14.10;8.90;;;;;;;22.48;75.35;98098.34;107136;1301;22451;-91
2022/08/15 06:53:58;;;;;;;14.10;8.50;;;;;;;22.55;75.39;98096.08;106973;1299;22526;-90
2022/08/15 06:58:14;;;;;;;;;;;;;;;;;;;;;
2022/08/15 07:01:54;;;;;;;;;;;;;;;;;;;;;
2022/08/15 07:04:29;;;;;;;15.60;9.30;;;;;;;22.79;75.36;98105.86;102999;1303;5396327;-91
2022/08/15 07:08:41;;;;;;;15.00;9.50;;;;;;;22.83;75.41;98102.29;106883;1303;22495;-91
2022/08/15 07:12:40;;;;;;;15.20;9.20;;;;;;;22.97;75.43;98097.52;106462;1308;22268;-92
2022/08/15 07:16:21;;;;;;;14.70;9.00;;;;;;;23.14;75.44;98100.88;106429;1309;22123;-92
2022/08/15 07:20:05;;;;;;;16.10;8.80;;;;;;;23.24;75.26;98106.33;106508;1308;22248;-91
2022/08/15 07:23:01;;;;;;;14.30;8.80;;;;;;;23.32;75.28;98110.83;106545;1309;22249;-92
2022/08/15 07:26:33;;;;;;;14.90;9.40;;;;;;;23.38;75.19;98106.40;106629;1303;22943;-92
2022/08/15 07:29:27;;;;;;;;;;;;;;;;;;;;;
2022/08/15 07:32:36;;;;;;;12.20;7.90;;;;;;;23.65;75.25;98105.09;107272;1298;22385;-90
2022/08/15 07:35:39;;;;;;;;;;;;;;;;;;;;;
2022/08/15 07:38:47;;;;;;;12.50;8.00;;;;;;;23.93;75.18;98098.40;107319;1298;22428;-92
2022/08/15 07:41:58;;;;;;;12.60;8.40;;;;;;;24.14;75.00;98095.87;107501;1294;22423;-92
2022/08/15 07:44:39;;;;;;;11.30;7.20;;;;;;;24.34;74.91;98096.08;107501;1294;23056;-92
2022/08/15 07:47:24;;;;;;;15.70;8.00;;;;;;;24.48;74.82;98093.16;107771;1287;22372;-92
2022/08/15 07:50:24;;;;;;;11.30;7.30;;;;;;;24.71;74.69;98101.12;108315;1287;22388;-91
2022/08/15 07:53:13;;;;;;;11.60;6.50;;;;;;;24.84;74.16;98093.96;108349;1287;23220;-92
2022/08/15 07:55:45;;;;;;;11.00;7.10;;;;;;;25.00;74.11;98095.61;108263;1287;22438;-91
2022/08/15 07:58:20;;;;;;;14.00;8.30;;;;;;;25.11;74.32;98083.04;108340;1287;22293;-91
2022/08/15 08:01:07;;;;;;;11.60;7.20;;;;;;;25.28;74.36;98080.88;108846;1280;22203;-92
2022/08/15 08:03:40;;;;;;;10.30;7.10;;;;;;;25.48;74.17;98085.92;108960;1281;22437;-89
2022/08/15 08:06:11;;;;;;;10.60;6.80;;;;;;;25.63;74.10;98081.21;108813;1284;22346;-90
2022/08/15 08:08:50;;;;;;;11.10;6.60;;;;;;;25.79;74.00;98083.56;108864;1282;22447;-93
2022/08/15 08:11:42;;;;;;;11.10;5.90;;;;;;;25.95;73.89;98077.65;109113;1281;22261;-93
2022/08/15 08:14:35;;;;;;;10.10;6.00;;;;;;;26.15;73.72;98083.97;109311;1279;22388;-90
2022/08/15 08:17:34;;;;;;;10.30;6.20;;;;;;;26.33;73.59;98083.93;108947;1284;22407;-89
2022/08/15 08:20:33;;;;;;;11.10;6.70;;;;;;;26.50;73.44;98079.40;109078;1281;22228;-92
2022/08/15 08:23:37;;;;;;;10.20;6.30;;;;;;;26.60;73.23;98084.73;108882;1281;22569;-91
2022/08/15 08:26:55;;;;;;;11.50;6.20;;;;;;;26.63;73.04;98080.33;109152;1281;22403;-92
2022/08/15 08:29:58;;;;;;;12.20;6.50;;;;;;;26.74;72.78;98077.55;109185;1281;22393;-93
2022/08/15 08:32:58;;;;;;;11.00;6.70;;;;;;;26.85;72.83;98078.27;108861;1284;23093;-91
2022/08/15 08:36:26;;;;;;;11.70;7.00;;;;;;;27.12;73.12;98075.55;108894;1281;22442;-92
2022/08/15 08:39:32;;;;;;;12.10;6.20;;;;;;;27.41;72.50;98073.74;108494;1287;23197;-92
2022/08/15 08:42:30;;;;;;;10.40;6.10;;;;;;;27.58;72.36;98076.81;108280;1286;22410;-90
2022/08/15 08:45:26;;;;;;;11.60;6.40;;;;;;;27.67;70.94;98077.71;108235;1286;22314;-90
2022/08/15 08:48:38;;;;;;;10.50;6.90;;;;;;;27.85;71.77;98086.41;108344;1287;22387;-90
2022/08/15 08:52:01;;;;;;;;;;;;;;;;;;;;;
2022/08/15 08:54:45;;;;;;;11.10;7.40;;;;;;;28.35;71.52;98081.85;108365;1287;22418;-92
2022/08/15 08:57:19;;;;;;;10.70;7.50;;;;;;;28.57;71.60;98082.11;108235;1286;22417;-90
2022/08/15 08:59:59;;;;;;;10.30;6.60;;;;;;;28.82;71.38;98075.07;108222;1287;22400;-91
2022/08/15 09:02:51;;;;;;;11.10;6.60;;;;;;;28.92;70.05;98077.27;108364;1287;23067;-93
2022/08/15 09:05:49;;;;;;;10.30;6.70;;;;;;;28.97;70.63;98076.92;108430;1287;22526;-94
2022/08/15 09:09:20;;;;;;;10.40;6.70;;;;;;;29.14;70.50;98079.19;108352;1287;22369;-92
2022/08/15 09:15:27;;;;;;;9.60;6.70;;;;;;;29.36;69.79;98074.31;108798;1281;22353;-91
2022/08/15 09:18:20;;;;;;;14.80;7.70;;;;;;;29.45;69.54;98068.71;108933;1281;23263;-94
2022/08/15 09:21:02;;;;;;;;;;;;;;;;;;;;;
2022/08/15 09:23:36;;;;;;;11.00;7.10;;;;;;;29.62;68.43;98074.93;109041;1281;22337;-92
2022/08/15 09:26:31;;;;;;;11.20;7.00;;;;;;;29.44;68.38;98070.41;108973;1281;22315;-93
2022/08/15 09:29:10;;;;;;;11.60;7.40;;;;;;;29.51;68.81;98066.81;109055;1280;22443;-91
2022/08/15 09:32:15;;;;;;;11.00;7.00;;;;;;;29.43;67.35;98067.77;108910;1281;22381;-90
2022/08/15 09:35:28;;;;;;;12.10;7.30;;;;;;;29.25;67.77;98062.63;109138;1281;22977;-92
2022/08/15 09:38:39;;;;;;;11.10;7.30;;;;;;;29.19;68.03;98065.79;109145;1281;22132;-93
2022/08/15 09:42:00;;;;;;;11.90;7.00;;;;;;;29.51;68.30;98066.19;108430;1287;22236;-92
2022/08/15 09:45:46;;;;;;;10.90;7.00;;;;;;;29.85;67.81;98064.48;108343;1287;22511;-92
2022/08/15 09:49:15;;;;;;;10.70;7.40;;;;;;;29.98;66.83;98060.31;107751;1294;23230;-94
2022/08/15 09:52:20;;;;;;;10.40;6.70;;;;;;;30.16;66.99;98061.06;107395;1297;22318;-94
2022/08/15 09:55:21;;;;;;;11.70;7.90;;;;;;;30.14;66.51;98053.73;107460;1298;22464;-94
2022/08/15 09:57:59;;;;;;;15.10;10.20;;;;;;;30.31;66.71;98051.67;107367;1299;22941;-92
2022/08/15 10:00:58;;;;;;;13.90;8.90;;;;;;;30.22;66.45;98046.08;107433;1299;22428;-94
2022/08/15 10:04:02;;;;;;;11.70;7.20;;;;;;;30.41;66.52;98043.77;107313;1299;22234;-92
2022/08/15 10:07:35;;;;;;;12.50;7.20;;;;;;;30.62;66.13;98036.66;107256;1300;22089;-93
2022/08/15 10:10:56;;;;;;;10.60;7.00;;;;;;;30.57;65.84;98032.14;107344;1297;22481;-94
2022/08/15 10:14:05;;;;;;;13.10;8.10;;;;;;;30.02;65.08;98030.09;107350;1299;22252;-92
2022/08/15 10:17:02;;;;;;;12.30;7.30;;;;;;;29.52;65.35;98028.48;107398;1293;22477;-93
2022/08/15 10:20:13;;;;;;;11.80;7.70;;;;;;;29.51;65.79;98029.66;107963;1293;22516;-93
2022/08/15 10:23:04;;;;;;;12.50;7.90;;;;;;;29.80;64.88;98032.98;107249;1299;22418;-93
2022/08/15 10:26:08;;;;;;;;;;;;;;;;;;;;;
2022/08/15 10:29:30;;;;;;;10.50;7.20;;;;;;;30.27;65.22;98018.59;108305;1287;22228;-93
2022/08/15 10:33:33;;;;;;;10.90;7.40;;;;;;;29.93;64.53;98005.21;108017;1290;22570;-92
2022/08/15 10:35:56;;;;;;;11.30;7.70;;;;;;;29.30;64.30;98008.41;107314;1299;22880;-91
2022/08/15 10:38:37;;;;;;;11.60;7.70;;;;;;;28.84;64.05;98025.54;107292;1297;22205;-90
2022/08/15 10:41:55;;;;;;;;;;;;;;;;;;;;;
2022/08/15 10:45:21;;;;;;;10.90;6.70;;;;;;;28.09;64.89;98022.90;107263;1299;22989;-92
2022/08/15 10:48:48;;;;;;;11.10;7.20;;;;;;;27.83;64.85;98034.41;107376;1297;22222;-93
2022/08/15 10:52:27;;;;;;;11.70;7.30;;;;;;;27.50;64.71;98035.34;107347;1297;22275;-91
2022/08/15 10:55:59;;;;;;;12.50;8.00;;;;;;;27.30;64.86;98047.99;107376;1297;22504;-92
2022/08/15 10:59:00;;;;;;;;;;;;;;;;;;;;;
2022/08/15 11:02:51;;;;;;;14.50;8.90;;;;;;;26.98;64.97;98034.93;107212;1298;22348;-91
2022/08/15 11:06:00;;;;;;;;;;;;;;;;;;;;;
2022/08/15 11:09:55;;;;;;;13.80;7.90;;;;;;;26.49;64.44;98027.19;107058;1300;22423;-92
2022/08/15 11:12:33;;;;;;;13.30;7.80;;;;;;;26.38;64.79;98034.80;107312;1295;22455;-91
2022/08/15 11:16:36;;;;;;;12.20;7.90;;;;;;;26.35;64.72;98040.99;107343;1296;22407;-92
2022/08/15 11:19:28;;;;;;;12.80;7.40;;;;;;;26.19;64.38;98046.57;107354;1295;23158;-91
2022/08/15 11:22:01;;;;;;;10.80;6.60;;;;;;;26.01;63.78;98058.92;107348;1296;22423;-90
2022/08/15 11:24:34;;;;;;;10.20;6.10;;;;;;;25.78;63.58;98071.11;107295;1296;22217;-90
2022/08/15 11:27:19;;;;;;;11.50;6.10;;;;;;;25.53;63.67;98064.76;107229;1295;22410;-90
2022/08/15 11:29:51;;;;;;;10.30;5.70;;;;;;;25.27;63.68;98071.13;107329;1296;22974;-90
2022/08/15 11:32:40;;;;;;;11.10;5.10;;;;;;;25.03;63.58;98073.39;107416;1290;22503;-90
2022/08/15 11:35:31;;;;;;;9.50;4.50;;;;;;;24.70;63.18;98083.31;107866;1290;22337;-91
2022/08/15 11:38:05;;;;;;;8.70;4.00;;;;;;;24.33;63.26;98082.23;108086;1288;22308;-90
2022/08/15 11:40:42;;;;;;;8.40;4.00;;;;;;;23.99;63.13;98093.87;108089;1288;22206;-91
2022/08/15 11:43:18;;;;;;;9.60;3.90;;;;;;;23.67;63.26;98090.48;108081;1288;22427;-90
2022/08/15 11:45:54;;;;;;;11.10;4.70;;;;;;;23.44;63.39;98089.07;108396;1282;22425;-91
2022/08/15 11:48:57;;;;;;;8.70;4.20;;;;;;;23.27;63.98;98090.81;108843;1281;22419;-91
2022/08/15 11:52:02;;;;;;;12.30;5.20;;;;;;;23.21;64.15;98102.73;109525;1279;22179;-94
2022/08/15 11:58:11;;;;;;;13.20;3.20;;;;;;;22.68;64.25;98113.58;108692;1272;23420;-92
2022/08/15 12:01:00;;;;;;;11.10;2.90;;;;;;;22.31;64.51;98130.94;109165;1281;22392;-93
2022/08/15 12:04:12;;;;;;;11.30;3.80;;;;;;;22.01;64.89;98173.16;109159;1281;22371;-94
2022/08/15 12:07:02;;;;;;;;;;;;;;;;;;;;;
2022/08/15 12:09:30;;;;;;;10.80;2.70;;;;;;;21.53;65.22;98164.15;109018;1281;22554;-88
2022/08/15 12:12:06;;;;;;;10.30;2.80;;;;;;;21.40;65.59;98151.77;108731;1282;22522;-91
2022/08/15 12:15:14;;;;;;;14.00;4.10;;;;;;;21.30;65.64;98146.73;108740;1282;23367;-91
2022/08/15 12:18:14;;;;;;;9.20;2.40;;;;;;;21.15;65.77;98143.95;109200;1281;22347;-89
2022/08/15 12:21:04;;;;;;;9.10;2.30;;;;;;;21.00;65.95;98134.39;108860;1282;22665;-89
2022/08/15 12:23:49;;;;;;;13.10;2.60;;;;;;;20.89;65.98;98133.85;108752;1281;22465;-89
2022/08/15 12:26:35;;;;;;;10.40;2.50;;;;;;;20.85;66.31;98125.17;108685;1283;22417;-90
2022/08/15 12:29:14;;;;;;;12.70;3.50;;;;;;;20.87;66.38;98113.77;108536;1284;22444;-89
2022/08/15 12:31:44;;;;;;;9.30;2.90;;;;;;;20.88;66.42;98107.67;108519;1281;22263;-89
2022/08/15 12:34:33;;;;;;;6.90;2.40;;;;;;;20.91;66.53;98103.64;108682;1282;23079;-89
2022/08/15 12:37:16;;;;;;;8.00;2.20;;;;;;;20.95;66.46;98099.53;108641;1282;22433;-89
2022/08/15 12:40:00;;;;;;;6.80;2.20;;;;;;;20.94;66.39;98087.36;108560;1282;22592;-89
2022/08/15 12:42:39;;;;;;;8.90;3.50;;;;;;;20.97;66.50;98082.67;108649;1282;23206;-91
2022/08/15 12:45:21;;;;;;;10.90;5.30;;;;;;;21.05;66.74;98084.84;108619;1284;22341;-91
2022/08/15 12:48:09;;;;;;;11.70;6.90;;;;;;;21.24;66.96;98081.84;108700;1282;22396;-90
2022/08/15 12:50:49;;;;;;;12.70;8.00;;;;;;;21.40;67.09;98063.69;108732;1282;23179;-91
2022/08/15 12:53:24;;;;;;;18.40;5.70;;;;;;;21.56;67.16;98052.87;108543;1282;22331;-91
2022/08/15 12:56:07;;;;;;;8.30;3.10;;;;;;;21.95;67.65;98057.99;108617;1282;22818;-91
2022/08/15 12:58:46;;;;;;;21.20;3.00;;;;;;;22.40;67.53;98055.95;108885;1282;22568;-91
2022/08/15 13:01:29;;;;;;;5.90;2.10;;;;;;;22.75;67.47;98049.40;108862;1282;22425;-91
2022/08/15 13:04:10;;;;;;;6.50;2.40;;;;;;;23.06;67.21;98042.70;108558;1284;22368;-92
2022/08/15 13:06:48;;;;;;;6.10;2.40;;;;;;;23.42;67.48;98040.39;108522;1282;23068;-91
2022/08/15 13:09:34;;;;;;;13.70;3.20;;;;;;;23.76;67.50;98039.70;108829;1282;22473;-91
2022/08/15 13:12:09;;;;;;;10.00;2.80;;;;;;;24.17;67.44;98032.16;108904;1282;22493;-91
2022/08/15 13:14:48;;;;;;;9.40;2.90;;;;;;;24.50;67.45;98040.94;108599;1284;22408;-90
2022/08/15 13:17:33;;;;;;;13.90;2.60;;;;;;;24.79;67.29;98031.34;108665;1284;22371;-91
2022/08/15 13:26:15;;;;;;;7.70;2.50;;;;;;;25.51;67.26;98013.21;108677;1283;23430;-90
2022/08/15 13:29:02;;;;;;;8.20;2.80;;;;;;;25.78;67.36;98008.60;108512;1284;22457;-89
2022/08/15 13:31:54;;;;;;;7.40;2.50;;;;;;;26.11;67.15;98002.61;109096;1282;23099;-91
2022/08/15 13:34:45;;;;;;;7.20;2.50;;;;;;;26.41;67.02;98000.88;108729;1281;23202;-90
2022/08/15 13:37:20;;;;;;;9.00;3.20;;;;;;;26.46;66.90;98001.34;108757;1283;22468;-92
2022/08/15 13:39:52;;;;;;;6.20;2.90;;;;;;;26.48;66.96;97995.36;108521;1284;22442;-91
2022/08/15 13:42:25;;;;;;;5.50;2.60;;;;;;;26.54;66.86;97988.92;108648;1284;22481;-90
2022/08/15 13:44:55;;;;;;;9.20;3.10;;;;;;;26.68;67.08;97979.10;108616;1282;22695;-91
2022/08/15 13:47:25;;;;;;;88.90;60.10;;;;;;;26.87;66.84;97974.31;108774;1281;23260;-91
2022/08/15 13:50:00;;;;;;;8.90;4.70;;;;;;;27.02;66.85;97972.29;108592;1284;22504;-92
2022/08/15 13:52:35;;;;;;;8.00;4.30;;;;;;;27.09;66.61;97965.60;108703;1284;22437;-92
2022/08/15 13:55:08;;;;;;;8.40;3.70;;;;;;;27.16;66.72;97955.17;108708;1284;22492;-90
2022/08/15 13:57:52;;;;;;;12.80;4.30;;;;;;;27.28;66.71;97955.14;108652;1283;22433;-90
2022/08/15 14:00:44;;;;;;;63.90;45.90;;;;;;;27.41;66.78;97957.95;108673;1284;22489;-91
2022/08/15 14:03:30;;;;;;;10.00;5.10;;;;;;;27.52;66.84;97954.09;108663;1283;22384;-92
2022/08/15 14:06:08;;;;;;;7.80;4.70;;;;;;;27.61;66.71;97956.45;108692;1284;22424;-92
2022/08/15 14:08:37;;;;;;;9.00;4.10;;;;;;;27.63;66.47;97955.67;108766;1284;22958;-91
2022/08/15 14:11:12;;;;;;;9.40;4.30;;;;;;;27.67;66.47;97954.38;108830;1284;22799;-92
2022/08/15 14:14:11;;;;;;;9.40;4.40;;;;;;;27.68;66.34;97950.61;108680;1284;22423;-93
2022/08/15 14:16:59;;;;;;;9.70;4.70;;;;;;;27.75;66.45;97949.05;108780;1284;22471;-90
2022/08/15 14:19:50;;;;;;;8.00;4.70;;;;;;;27.71;66.45;97942.79;108600;1284;22445;-91
2022/08/15 14:22:23;;;;;;;9.00;4.60;;;;;;;27.70;66.47;97937.66;108505;1284;22401;-92
2022/08/15 14:25:00;;;;;;;12.50;6.90;;;;;;;27.64;66.31;97939.83;108577;1284;22504;-92
2022/08/15 14:27:38;;;;;;;9.20;4.60;;;;;;;27.58;66.52;97934.08;108719;1284;22630;-90
2022/08/15 14:30:12;;;;;;;9.60;4.30;;;;;;;27.65;66.62;97927.58;108515;1284;22498;-92
2022/08/15 14:33:42;;;;;;;;;;;;;;;;;;;;;
2022/08/15 14:36:55;;;;;;;;;;;;;;;;;;;;;
2022/08/15 14:40:05;;;;;;;;;;;;;;;;;;;;;
2022/08/15 14:43:14;;;;;;;9.90;5.10;;;;;;;28.28;66.06;97921.81;108762;1284;22373;-93
2022/08/15 14:45:48;;;;;;;8.80;4.90;;;;;;;28.29;65.63;97919.75;108892;1272;23341;-91
2022/08/15 14:51:49;;;;;;;9.10;5.70;;;;;;;28.10;65.73;97919.57;109400;1271;22516;-90
2022/08/15 14:55:12;;;;;;;;;;;;;;;;;;;;;
2022/08/15 14:58:13;;;;;;;9.00;5.70;;;;;;;28.31;65.46;97909.13;109486;1281;22488;-91
2022/08/15 15:01:34;;;;;;;;;;;;;;;;;;;;;
2022/08/15 15:07:54;;;;;;;;;;;;;;;;;;;;;
2022/08/15 15:11:04;;;;;;;8.60;5.30;;;;;;;28.48;64.59;97921.14;109519;1269;22549;31
2022/08/15 15:14:18;;;;;;;;;;;;;;;;;;;;;
2022/08/15 15:17:39;;;;;;;;;;;;;;;;;;;;;
2022/08/15 15:20:38;;;;;;;;;;;;;;;;;;;;;
2022/08/15 15:23:41;;;;;;;;;;;;;;;;;;;;;
2022/08/15 15:27:05;;;;;;;;;;;;;;;;;;;;;
2022/08/15 15:33:14;;;;;;;;;;;;;;;;;;;;;
2022/08/15 15:35:52;;;;;;;8.90;6.00;;;;;;;28.09;64.73;97922.95;109174;1283;22418;-92
2022/08/15 15:42:10;;;;;;;10.10;6.30;;;;;;;27.89;64.59;97924.98;109619;1268;22549;-92
2022/08/15 15:48:09;;;;;;;10.10;6.40;;;;;;;27.66;64.53;97933.83;109359;1271;22638;-91
2022/08/15 15:51:05;;;;;;;;;;;;;;;;;;;;;
2022/08/15 15:54:15;;;;;;;;;;;;;;;;;;;;;
2022/08/15 16:00:26;;;;;;;;;;;;;;;;;;;;;
2022/08/15 16:03:31;;;;;;;;;;;;;;;;;;;;;
2022/08/15 16:06:33;;;;;;;;;;;;;;;;;;;;;
2022/08/15 16:09:24;;;;;;;10.60;6.30;;;;;;;26.61;64.02;97928.46;109592;1268;23245;-93
2022/08/15 16:12:26;;;;;;;12.60;6.40;;;;;;;26.57;64.42;97924.66;109381;1268;22385;31
2022/08/15 16:15:33;;;;;;;;;;;;;;;;;;;;;
2022/08/15 16:18:48;;;;;;;10.00;6.30;;;;;;;27.04;64.14;97921.98;109462;1271;22415;-91
2022/08/15 16:22:02;;;;;;;;;;;;;;;;;;;;;
2022/08/15 16:25:26;;;;;;;10.60;6.20;;;;;;;26.93;63.60;97915.60;109343;1268;22535;-89
2022/08/15 16:28:24;;;;;;;9.90;5.90;;;;;;;26.70;63.74;97909.88;109519;1281;22454;-91
2022/08/15 16:31:30;;;;;;;10.60;6.90;;;;;;;26.51;63.90;97914.23;109668;1280;22437;-91
2022/08/15 16:34:12;;;;;;;10.50;7.00;;;;;;;26.35;63.73;97917.21;109269;1269;22538;31
2022/08/15 16:37:27;;;;;;;10.50;6.90;;;;;;;26.21;63.98;97920.98;109681;1268;23133;-90
2022/08/15 16:40:09;;;;;;;13.10;6.20;;;;;;;26.13;63.86;97913.07;109157;1271;22529;-91
2022/08/15 16:43:04;;;;;;;10.50;6.30;;;;;;;26.00;63.91;97905.82;109653;1281;22589;-90
2022/08/15 16:46:33;;;;;;;10.10;6.30;;;;;;;25.99;63.83;97911.86;109470;1281;22325;-90
2022/08/15 16:49:24;;;;;;;9.60;6.30;;;;;;;25.86;63.90;97911.50;108438;1287;22529;-92
2022/08/15 16:52:30;;;;;;;10.40;6.60;;;;;;;25.74;63.79;97913.92;109554;1281;22389;-93
2022/08/15 16:55:32;;;;;;;11.10;6.60;;;;;;;25.68;63.93;97919.60;109423;1269;22431;-89
2022/08/15 16:58:48;;;;;;;11.60;6.70;;;;;;;25.51;63.93;97914.64;109520;1281;22587;-91
2022/08/15 17:01:49;;;;;;;10.40;7.10;;;;;;;25.39;63.93;97918.35;109322;1281;23060;-93
2022/08/15 17:04:48;;;;;;;10.20;6.70;;;;;;;25.27;63.96;97922.23;109229;1281;22349;-92
2022/08/15 17:09:11;;;;;;;9.80;5.80;;;;;;;25.18;63.90;97926.53;109259;1281;22293;-92
2022/08/15 17:12:42;;;;;;;10.90;6.30;;;;;;;25.07;64.03;97934.14;109403;1280;22488;-92
2022/08/15 17:15:47;;;;;;;12.20;6.60;;;;;;;24.97;63.89;97933.08;109185;1282;22501;-92
2022/08/15 17:19:27;;;;;;;10.60;6.70;;;;;;;24.87;63.95;97931.44;109248;1282;22358;-93
2022/08/15 17:22:33;;;;;;;11.00;6.30;;;;;;;24.76;64.01;97936.63;109326;1281;22468;-93
2022/08/15 17:26:20;;;;;;;10.60;6.40;;;;;;;24.67;63.98;97945.05;109327;1281;22420;-93
2022/08/15 17:29:15;;;;;;;11.70;6.90;;;;;;;24.53;64.18;97934.27;109260;1281;22402;-93
2022/08/15 17:32:02;;;;;;;12.70;7.20;;;;;;;24.48;64.10;97938.73;109241;1281;22431;-90
2022/08/15 17:34:43;;;;;;;12.90;7.10;;;;;;;24.40;64.14;97935.78;109076;1281;22182;-91
2022/08/15 17:37:20;;;;;;;11.20;6.70;;;;;;;24.40;64.31;97935.93;109089;1282;22478;-92
2022/08/15 17:40:35;;;;;;;;;;;;;;;;;;;;;
2022/08/15 17:43:24;;;;;;;11.10;7.10;;;;;;;24.38;64.15;97943.00;109142;1281;22501;-93
2022/08/15 17:46:08;;;;;;;11.40;7.00;;;;;;;24.36;64.44;97947.73;108876;1284;22437;-93
2022/08/15 17:48:53;;;;;;;11.90;7.20;;;;;;;24.30;64.38;97946.05;108826;1282;22438;-92
2022/08/15 17:51:47;;;;;;;9.70;6.80;;;;;;;24.26;64.49;97956.23;108817;1282;22246;-92
2022/08/15 17:54:49;;;;;;;12.00;7.40;;;;;;;24.24;64.35;97966.63;108890;1282;22254;-91
2022/08/15 17:58:21;;;;;;;13.10;7.50;;;;;;;24.17;64.45;97963.95;108886;1282;22234;-93
2022/08/15 18:01:16;;;;;;;11.80;7.10;;;;;;;24.14;64.62;97969.15;109026;1282;22409;-91
2022/08/15 18:04:02;;;;;;;13.10;6.70;;;;;;;24.13;64.59;97973.73;108649;1282;22433;-92